EDFH/HHN METAR and TAF weather

Enter ICAO airport designator
Station Type Date Time Source
EDFH METAR 2018/10/22 16:50 UTC NOAA

EDFH 221650Z 36009KT 9999 BKN008 09/07 Q1032


Station Type Date Time Source
EDFH Decoded METAR 2018/10/22 16:50 UTC NOAA

Hahn, Germany (EDFH) 49-57N 007-16E 498M
Oct 22, 2018 - 12:50 PM EDT / 2018.10.22 1650 UTC
Wind: from the N (360 degrees) at 10 MPH (9 KT):0
Visibility: greater than 7 mile(s):0
Sky conditions: mostly cloudy
Temperature: 48 F (9 C)
Dew Point: 44 F (7 C)
Relative Humidity: 87%
Pressure (altimeter): 30.47 in. Hg (1032 hPa)
ob: EDFH 221650Z 36009KT 9999 BKN008 09/07 Q1032
cycle: 17

Station Type Date Time Source
EDFH TAF 2018/10/22 12:27 UTC NOAA

TAF EDFH 221100Z 2212/2312 01007KT 9999 BKN025
TEMPO 2213/2217 3000 -DZ BR OVC004
BECMG 2222/2224 31004KT
BECMG 2304/2306 25006KT
BECMG 2308/2310 26015G25KT


Example: see airport list